createdAt,value
2023-04-16T00:02:16.666Z,99.90
2023-04-16T00:04:44.468Z,99.90
2023-04-16T00:07:12.130Z,99.90
2023-04-16T00:09:39.621Z,99.90
2023-04-16T00:12:07.205Z,99.90
2023-04-16T00:14:34.697Z,99.90
2023-04-16T00:17:02.328Z,99.90
2023-04-16T00:19:30.020Z,99.90
2023-04-16T00:21:57.480Z,99.90
2023-04-16T00:24:24.951Z,99.90
2023-04-16T00:26:52.454Z,99.90
2023-04-16T00:29:20.419Z,99.90
2023-04-16T00:31:47.916Z,99.90
2023-04-16T00:34:15.776Z,99.90
2023-04-16T00:36:43.299Z,99.90
2023-04-16T00:39:11.651Z,99.90
2023-04-16T00:41:39.112Z,99.90
2023-04-16T00:44:06.868Z,99.90
2023-04-16T00:46:35.503Z,99.90
2023-04-16T00:49:03.932Z,99.90
2023-04-16T00:51:35.390Z,99.90
2023-04-16T00:54:04.291Z,99.90
2023-04-16T00:56:33.342Z,99.90
2023-04-16T00:59:01.065Z,99.90
2023-04-16T01:01:28.775Z,99.90
2023-04-16T01:03:57.022Z,99.90
2023-04-16T01:06:24.607Z,99.90
2023-04-16T01:08:51.996Z,99.90
2023-04-16T01:11:19.515Z,99.90
2023-04-16T01:13:46.903Z,99.90
2023-04-16T01:16:14.758Z,99.90
2023-04-16T01:18:43.045Z,99.90
2023-04-16T01:21:10.510Z,99.90
2023-04-16T01:23:37.904Z,99.90
2023-04-16T01:26:06.541Z,99.90
2023-04-16T01:28:33.953Z,99.90
2023-04-16T01:31:01.488Z,99.90
2023-04-16T01:33:43.375Z,99.90
2023-04-16T01:36:12.520Z,99.90
2023-04-16T01:38:39.941Z,99.90
2023-04-16T01:41:07.394Z,99.90
2023-04-16T01:43:36.100Z,99.90
2023-04-16T01:46:15.032Z,99.90
2023-04-16T01:48:42.951Z,99.90
2023-04-16T01:51:10.408Z,99.90
2023-04-16T01:53:37.820Z,99.90
2023-04-16T01:56:06.546Z,99.90
2023-04-16T01:58:34.398Z,99.90
2023-04-16T02:01:02.097Z,99.90
2023-04-16T02:03:31.309Z,99.90
2023-04-16T02:05:59.107Z,99.90
2023-04-16T02:08:29.729Z,99.90
2023-04-16T02:11:00.908Z,99.90
2023-04-16T02:13:30.166Z,99.90
2023-04-16T02:15:59.557Z,99.90
2023-04-16T02:18:51.231Z,99.90
2023-04-16T02:21:23.202Z,99.90
2023-04-16T02:23:53.170Z,99.90
2023-04-16T02:26:32.970Z,99.90
2023-04-16T02:29:07.698Z,99.90
2023-04-16T02:31:45.092Z,99.90
2023-04-16T02:34:15.286Z,99.90
2023-04-16T02:36:44.285Z,99.90
2023-04-16T02:39:13.259Z,99.90
2023-04-16T02:41:42.868Z,99.90
2023-04-16T02:44:11.869Z,99.90
2023-04-16T02:46:41.714Z,99.90
2023-04-16T02:49:11.230Z,99.90
2023-04-16T02:51:40.628Z,99.90
2023-04-16T02:54:11.844Z,99.90
2023-04-16T02:56:40.839Z,99.90
2023-04-16T02:59:09.068Z,99.90
2023-04-16T03:01:37.144Z,99.90
2023-04-16T03:04:04.904Z,99.90
2023-04-16T03:06:32.712Z,99.90
2023-04-16T03:09:00.146Z,99.90
2023-04-16T03:11:27.560Z,99.90
2023-04-16T03:13:55.043Z,99.90
2023-04-16T03:16:22.773Z,99.90
2023-04-16T03:18:50.412Z,99.90
2023-04-16T03:21:17.940Z,99.90
2023-04-16T03:23:45.337Z,99.90
2023-04-16T03:26:12.810Z,99.90
2023-04-16T03:28:40.315Z,99.90
2023-04-16T03:31:08.272Z,99.90
2023-04-16T03:33:37.144Z,99.90
2023-04-16T03:36:06.459Z,99.90
2023-04-16T03:38:33.933Z,99.90
2023-04-16T03:41:01.359Z,99.90
2023-04-16T03:43:30.628Z,99.90
2023-04-16T03:45:58.051Z,99.90
2023-04-16T03:48:25.925Z,99.90
2023-04-16T03:50:56.562Z,99.90
2023-04-16T03:53:26.404Z,99.90
2023-04-16T03:55:54.505Z,99.90
2023-04-16T03:58:22.782Z,99.90
2023-04-16T04:00:54.943Z,99.90
2023-04-16T04:03:23.018Z,99.90
2023-04-16T04:05:51.261Z,99.90
2023-04-16T04:08:26.117Z,99.90
2023-04-16T04:10:53.536Z,99.90
2023-04-16T04:13:23.539Z,99.90
2023-04-16T04:15:52.513Z,99.90
2023-04-16T04:18:21.016Z,99.90
2023-04-16T04:20:48.483Z,99.90
2023-04-16T04:23:18.452Z,99.90
2023-04-16T04:25:47.181Z,99.90
2023-04-16T04:28:15.016Z,99.90
2023-04-16T04:30:42.424Z,99.90
2023-04-16T04:33:10.021Z,99.90
2023-04-16T04:35:38.923Z,99.90
2023-04-16T04:38:06.576Z,99.90
2023-04-16T04:40:34.347Z,99.90
2023-04-16T04:43:03.602Z,99.90
2023-04-16T04:45:32.305Z,99.90
2023-04-16T04:48:00.037Z,99.90
2023-04-16T04:50:27.484Z,99.90
2023-04-16T04:52:55.291Z,99.90
2023-04-16T04:55:22.873Z,99.90
2023-04-16T04:57:51.344Z,99.90
2023-04-16T05:00:18.887Z,99.90
2023-04-16T05:02:53.513Z,99.90
2023-04-16T05:05:22.503Z,99.90
2023-04-16T05:07:51.304Z,99.90
2023-04-16T05:10:18.716Z,99.90
2023-04-16T05:12:48.911Z,99.90
2023-04-16T05:15:18.577Z,99.90
2023-04-16T05:17:46.452Z,99.90
2023-04-16T05:20:14.883Z,99.90
2023-04-16T05:22:42.245Z,99.90
2023-04-16T05:25:09.881Z,99.90
2023-04-16T05:27:37.531Z,99.90
2023-04-16T05:30:05.370Z,99.90
2023-04-16T05:32:32.853Z,99.90
2023-04-16T05:35:00.379Z,99.90
2023-04-16T05:37:27.750Z,99.90
2023-04-16T05:39:55.296Z,99.90
2023-04-16T05:42:22.665Z,99.90
2023-04-16T05:44:51.156Z,99.90
2023-04-16T05:47:18.623Z,99.90
2023-04-16T05:49:45.989Z,99.90
2023-04-16T05:52:13.503Z,99.90
2023-04-16T05:54:41.050Z,99.90
2023-04-16T05:57:08.500Z,99.90
2023-04-16T05:59:38.118Z,99.90
2023-04-16T06:02:07.507Z,99.90
2023-04-16T06:04:35.904Z,99.90
2023-04-16T06:07:03.513Z,99.90
2023-04-16T06:09:31.004Z,99.90
2023-04-16T06:11:58.536Z,99.90
2023-04-16T06:14:25.973Z,99.90
2023-04-16T06:16:54.350Z,99.90
2023-04-16T06:19:21.787Z,99.90
2023-04-16T06:21:49.289Z,99.90
2023-04-16T06:24:18.437Z,99.90
2023-04-16T06:26:45.827Z,99.90
2023-04-16T06:29:13.322Z,99.90
2023-04-16T06:31:41.130Z,99.90
2023-04-16T06:34:09.619Z,99.90
2023-04-16T06:36:37.750Z,99.90
2023-04-16T06:39:05.212Z,99.90
2023-04-16T06:41:32.671Z,99.90
2023-04-16T06:44:00.070Z,99.90
2023-04-16T06:46:27.700Z,99.90
2023-04-16T06:48:55.127Z,99.90
2023-04-16T06:51:22.739Z,99.90
2023-04-16T06:53:50.343Z,99.90
2023-04-16T06:56:17.809Z,99.90
2023-04-16T06:58:45.208Z,99.90
2023-04-16T07:01:12.866Z,99.90
2023-04-16T07:03:40.773Z,99.90
2023-04-16T07:06:08.237Z,99.90
2023-04-16T07:08:35.703Z,99.90
2023-04-16T07:11:03.119Z,99.60
2023-04-16T07:13:30.644Z,98.40
2023-04-16T07:15:58.041Z,96.30
2023-04-16T07:18:27.895Z,95.20
2023-04-16T07:20:55.335Z,94.20
2023-04-16T07:23:22.754Z,94.00
2023-04-16T07:25:50.462Z,93.80
2023-04-16T07:28:17.868Z,93.70
2023-04-16T07:30:45.450Z,93.20
2023-04-16T07:33:12.964Z,93.80
2023-04-16T07:35:41.178Z,94.80
2023-04-16T07:38:08.548Z,94.90
2023-04-16T07:40:36.938Z,93.80
2023-04-16T07:43:04.381Z,93.00
2023-04-16T07:45:31.809Z,91.30
2023-04-16T07:47:59.202Z,90.50
2023-04-16T07:50:26.647Z,87.00
2023-04-16T07:52:54.051Z,85.00
2023-04-16T07:55:21.531Z,84.40
2023-04-16T07:57:48.956Z,84.40
2023-04-16T08:00:16.543Z,84.80
2023-04-16T08:02:44.534Z,84.60
2023-04-16T08:05:12.819Z,84.10
2023-04-16T08:07:41.904Z,81.60
2023-04-16T08:10:09.538Z,83.30
2023-04-16T08:12:37.034Z,82.30
2023-04-16T08:15:05.225Z,79.60
2023-04-16T08:17:34.409Z,78.20
2023-04-16T08:20:01.973Z,76.20
2023-04-16T08:22:30.286Z,74.80
2023-04-16T08:24:57.754Z,75.10
2023-04-16T08:27:25.196Z,75.50
2023-04-16T08:29:52.556Z,74.70
2023-04-16T08:32:19.985Z,73.30
2023-04-16T08:34:47.462Z,72.30
2023-04-16T08:37:14.958Z,70.90
2023-04-16T08:39:42.419Z,71.90
2023-04-16T08:42:22.789Z,71.20
2023-04-16T08:44:56.777Z,72.40
2023-04-16T08:47:25.620Z,72.80
2023-04-16T08:49:58.459Z,70.30
2023-04-16T08:52:28.382Z,68.70
2023-04-16T08:55:06.846Z,66.60
2023-04-16T08:57:42.728Z,66.00
2023-04-16T09:00:11.116Z,67.10
2023-04-16T09:02:39.236Z,66.70
2023-04-16T09:05:08.299Z,65.90
2023-04-16T09:07:36.496Z,64.40
2023-04-16T09:10:06.095Z,62.70
2023-04-16T09:12:34.334Z,63.30
2023-04-16T09:15:03.399Z,62.20
2023-04-16T09:17:31.649Z,62.40
2023-04-16T09:19:59.165Z,63.90
2023-04-16T09:22:26.589Z,63.90
2023-04-16T09:24:53.974Z,64.00
2023-04-16T09:27:24.712Z,61.70
2023-04-16T09:29:53.398Z,62.60
2023-04-16T09:32:28.800Z,60.10
2023-04-16T09:35:02.718Z,61.20
2023-04-16T09:37:31.109Z,60.70
2023-04-16T09:40:01.343Z,61.30
2023-04-16T09:42:34.029Z,60.70
2023-04-16T09:45:04.126Z,62.20
2023-04-16T09:47:43.917Z,61.40
2023-04-16T09:50:18.187Z,61.50
2023-04-16T09:52:49.707Z,61.90
2023-04-16T09:55:22.270Z,64.90
2023-04-16T09:57:49.647Z,65.50
2023-04-16T10:00:19.339Z,66.20
2023-04-16T10:02:48.038Z,63.20
2023-04-16T10:05:21.101Z,62.10
2023-04-16T10:07:49.532Z,62.00
2023-04-16T10:10:17.103Z,61.60
2023-04-16T10:12:44.550Z,60.60
2023-04-16T10:15:11.908Z,60.00
2023-04-16T10:17:40.608Z,60.00
2023-04-16T10:20:09.147Z,59.80
2023-04-16T10:22:37.173Z,60.10
2023-04-16T10:25:04.859Z,61.80
2023-04-16T10:27:33.114Z,62.20
2023-04-16T10:30:01.097Z,60.30
2023-04-16T10:32:30.499Z,58.80
2023-04-16T10:34:58.375Z,59.00
2023-04-16T10:37:32.708Z,59.10
2023-04-16T10:40:00.155Z,59.50
2023-04-16T10:42:27.821Z,59.20
2023-04-16T10:44:58.928Z,61.10
2023-04-16T10:47:26.761Z,60.40
2023-04-16T10:49:54.161Z,59.40
2023-04-16T10:52:22.536Z,59.20
2023-04-16T10:54:52.620Z,60.00
2023-04-16T10:57:20.597Z,61.50
2023-04-16T10:59:49.450Z,60.30
2023-04-16T11:02:18.617Z,62.20
2023-04-16T11:04:47.837Z,61.70
2023-04-16T11:07:21.135Z,63.90
2023-04-16T11:09:54.460Z,66.40
2023-04-16T11:12:38.107Z,67.90
2023-04-16T11:15:08.238Z,70.30
2023-04-16T11:17:44.628Z,70.70
2023-04-16T11:20:23.900Z,74.30
2023-04-16T11:22:56.107Z,72.90
2023-04-16T11:25:34.125Z,72.40
2023-04-16T11:28:02.697Z,73.60
2023-04-16T11:30:35.936Z,76.00
2023-04-16T11:33:12.847Z,78.40
2023-04-16T11:35:41.281Z,78.90
2023-04-16T11:38:08.937Z,80.60
2023-04-16T11:40:36.476Z,80.20
2023-04-16T11:43:15.104Z,78.80
2023-04-16T11:45:57.483Z,78.10
2023-04-16T11:48:25.136Z,78.90
2023-04-16T11:50:58.940Z,79.90
2023-04-16T11:53:27.057Z,79.30
2023-04-16T11:55:55.411Z,79.20
2023-04-16T11:58:23.552Z,79.60
2023-04-16T12:00:53.476Z,81.60
2023-04-16T12:03:38.875Z,79.50
2023-04-16T12:06:10.538Z,79.30
2023-04-16T12:08:38.172Z,80.50
2023-04-16T12:11:06.329Z,78.40
2023-04-16T12:13:39.784Z,79.20
2023-04-16T12:16:20.082Z,79.40
2023-04-16T12:19:03.044Z,79.20
2023-04-16T12:21:50.047Z,79.90
2023-04-16T12:24:22.643Z,79.50
2023-04-16T12:26:57.642Z,79.50
2023-04-16T12:29:26.427Z,78.70
2023-04-16T12:31:54.610Z,78.70
2023-04-16T12:34:28.975Z,80.00
2023-04-16T12:37:10.582Z,78.90
2023-04-16T12:39:38.026Z,80.00
2023-04-16T12:42:09.840Z,79.90
2023-04-16T12:44:37.316Z,80.60
2023-04-16T12:47:05.639Z,80.60
2023-04-16T12:49:33.225Z,79.80
2023-04-16T12:52:00.850Z,81.50
2023-04-16T12:54:31.041Z,80.90
2023-04-16T12:56:58.445Z,81.50
2023-04-16T12:59:25.826Z,83.50
2023-04-16T13:01:53.413Z,81.50
2023-04-16T13:04:23.367Z,83.00
2023-04-16T13:06:52.584Z,82.10
2023-04-16T13:09:20.306Z,80.00
2023-04-16T13:11:47.722Z,79.30
2023-04-16T13:14:15.083Z,79.80
2023-04-16T13:16:42.520Z,79.80
2023-04-16T13:19:10.024Z,78.20
2023-04-16T13:21:37.871Z,78.60
2023-04-16T13:24:05.930Z,78.60
2023-04-16T13:26:33.408Z,78.90
2023-04-16T13:29:01.620Z,79.40
2023-04-16T13:31:29.099Z,79.40
2023-04-16T13:33:56.590Z,79.60
2023-04-16T13:36:25.647Z,80.80
2023-04-16T13:38:54.838Z,80.00
2023-04-16T13:41:22.223Z,80.70
2023-04-16T13:43:49.762Z,80.60
2023-04-16T13:46:17.293Z,80.10
2023-04-16T13:48:46.160Z,78.00
2023-04-16T13:51:15.380Z,77.90
2023-04-16T13:53:42.743Z,77.00
2023-04-16T13:56:11.179Z,78.10
2023-04-16T13:58:38.904Z,78.70
2023-04-16T14:01:06.395Z,79.80
2023-04-16T14:03:36.346Z,80.00
2023-04-16T14:06:04.396Z,79.10
2023-04-16T14:08:32.122Z,81.90
2023-04-16T14:10:59.529Z,81.00
2023-04-16T14:13:27.100Z,81.70
2023-04-16T14:15:54.850Z,81.30
2023-04-16T14:18:22.324Z,82.70
2023-04-16T14:20:49.716Z,81.50
2023-04-16T14:23:17.092Z,81.80
2023-04-16T14:25:44.498Z,81.60
2023-04-16T14:28:13.049Z,82.20
2023-04-16T14:30:42.532Z,81.30
2023-04-16T14:33:10.008Z,82.40
2023-04-16T14:35:37.429Z,83.40
2023-04-16T14:38:05.002Z,82.30
2023-04-16T14:40:32.536Z,83.00
2023-04-16T14:43:00.050Z,84.80
2023-04-16T14:45:28.943Z,84.40
2023-04-16T14:47:57.118Z,82.50
2023-04-16T14:50:24.486Z,83.10
2023-04-16T14:52:53.726Z,82.90
2023-04-16T14:55:21.441Z,83.90
2023-04-16T14:57:48.820Z,82.60
2023-04-16T15:00:18.813Z,83.60
2023-04-16T15:02:48.305Z,82.50
2023-04-16T15:05:16.143Z,82.80
2023-04-16T15:07:43.520Z,81.80
2023-04-16T15:10:12.848Z,81.50
2023-04-16T15:12:40.705Z,83.00
2023-04-16T15:15:09.807Z,83.10
2023-04-16T15:17:37.947Z,82.60
2023-04-16T15:20:08.537Z,82.80
2023-04-16T15:22:35.988Z,84.10
2023-04-16T15:25:03.714Z,83.30
2023-04-16T15:27:31.140Z,83.70
2023-04-16T15:30:00.273Z,84.30
2023-04-16T15:32:27.852Z,86.10
2023-04-16T15:34:55.355Z,86.40
2023-04-16T15:37:22.749Z,88.10
2023-04-16T15:39:50.166Z,88.70
2023-04-16T15:42:17.626Z,88.30
2023-04-16T15:44:45.039Z,87.70
2023-04-16T15:47:12.439Z,88.70
2023-04-16T15:49:39.907Z,88.90
2023-04-16T15:52:07.538Z,89.70
2023-04-16T15:54:34.987Z,89.30
2023-04-16T15:57:02.437Z,89.80
2023-04-16T15:59:29.867Z,88.40
2023-04-16T16:01:57.357Z,88.30
2023-04-16T16:04:26.578Z,87.80
2023-04-16T16:06:54.316Z,88.20
2023-04-16T16:09:26.260Z,88.80
2023-04-16T16:11:54.676Z,89.90
2023-04-16T16:14:23.816Z,88.00
2023-04-16T16:16:53.777Z,88.30
2023-04-16T16:19:22.736Z,88.70
2023-04-16T16:21:54.427Z,88.90
2023-04-16T16:24:22.237Z,90.20
2023-04-16T16:26:49.768Z,91.90
2023-04-16T16:29:17.218Z,92.20
2023-04-16T16:31:44.673Z,94.00
2023-04-16T16:34:19.957Z,94.30
2023-04-16T16:36:48.277Z,95.30
2023-04-16T16:39:15.642Z,95.60
2023-04-16T16:41:43.038Z,95.70
2023-04-16T16:44:10.918Z,95.60
2023-04-16T16:46:38.398Z,94.50
2023-04-16T16:49:06.989Z,95.20
2023-04-16T16:51:34.696Z,94.60
2023-04-16T16:54:02.120Z,93.90
2023-04-16T16:56:29.558Z,93.60
2023-04-16T16:58:57.148Z,93.70
2023-04-16T17:01:26.092Z,93.00
2023-04-16T17:03:53.930Z,92.90
2023-04-16T17:06:21.512Z,93.20
2023-04-16T17:08:49.183Z,94.00
2023-04-16T17:11:16.877Z,96.50
2023-04-16T17:13:44.371Z,99.00
2023-04-16T17:16:13.194Z,99.90
2023-04-16T17:18:40.844Z,99.90
2023-04-16T17:21:08.248Z,99.90
2023-04-16T17:23:35.801Z,99.90
2023-04-16T17:26:03.394Z,99.90
2023-04-16T17:28:30.859Z,99.90
2023-04-16T17:30:59.485Z,99.90
2023-04-16T17:33:26.966Z,99.90
2023-04-16T17:35:54.461Z,99.90
2023-04-16T17:38:21.881Z,99.90
2023-04-16T17:40:49.250Z,99.90
2023-04-16T17:43:16.723Z,99.90
2023-04-16T17:45:44.126Z,99.90
2023-04-16T17:48:11.678Z,99.90
2023-04-16T17:50:39.789Z,99.90
2023-04-16T17:53:07.216Z,99.90
2023-04-16T17:55:34.732Z,99.90
2023-04-16T17:58:04.662Z,99.90
2023-04-16T18:00:33.654Z,99.90
2023-04-16T18:03:03.724Z,99.90
2023-04-16T18:05:31.817Z,99.90
2023-04-16T18:07:59.195Z,99.90
2023-04-16T18:10:26.556Z,99.90
2023-04-16T18:12:53.953Z,99.90
2023-04-16T18:15:21.381Z,99.90
2023-04-16T18:17:48.878Z,99.90
2023-04-16T18:20:19.401Z,99.90
2023-04-16T18:22:46.845Z,99.90
2023-04-16T18:25:14.484Z,99.90
2023-04-16T18:27:42.078Z,99.90
2023-04-16T18:30:18.973Z,99.90
2023-04-16T18:33:25.461Z,99.90
2023-04-16T18:35:42.427Z,99.90
2023-04-16T18:38:10.031Z,99.90
2023-04-16T18:40:37.676Z,99.90
2023-04-16T18:43:05.140Z,99.90
2023-04-16T18:45:34.403Z,99.90
2023-04-16T18:48:04.196Z,99.90
2023-04-16T18:50:32.051Z,99.90
2023-04-16T18:52:59.493Z,99.90
2023-04-16T18:55:26.924Z,99.90
2023-04-16T18:57:55.181Z,99.90
2023-04-16T19:00:22.716Z,99.90
2023-04-16T19:02:50.404Z,99.90
2023-04-16T19:05:18.635Z,99.90
2023-04-16T19:07:46.131Z,99.90
2023-04-16T19:10:13.511Z,99.90
2023-04-16T19:12:40.949Z,99.90
2023-04-16T19:15:08.734Z,99.90
2023-04-16T19:17:36.324Z,99.90
2023-04-16T19:20:08.449Z,99.90
2023-04-16T19:22:35.996Z,99.90
2023-04-16T19:25:03.762Z,99.90
2023-04-16T19:27:31.169Z,99.90
2023-04-16T19:29:58.565Z,99.90
2023-04-16T19:32:26.054Z,99.90
2023-04-16T19:34:53.448Z,99.90
2023-04-16T19:37:20.872Z,99.90
2023-04-16T19:39:48.388Z,99.90
2023-04-16T19:42:15.866Z,99.90
2023-04-16T19:44:43.275Z,99.90
2023-04-16T19:47:10.770Z,99.90
2023-04-16T19:49:38.590Z,99.90
2023-04-16T19:52:06.107Z,99.90
2023-04-16T19:54:34.807Z,99.90
2023-04-16T19:57:02.542Z,99.90
2023-04-16T19:59:32.210Z,99.90
2023-04-16T20:01:59.664Z,99.90
2023-04-16T20:04:27.254Z,99.90
2023-04-16T20:06:54.776Z,99.90
2023-04-16T20:09:22.244Z,99.90
2023-04-16T20:11:49.663Z,99.90
2023-04-16T20:14:17.293Z,99.90
2023-04-16T20:16:44.818Z,99.90
2023-04-16T20:19:17.175Z,99.90
2023-04-16T20:21:45.660Z,99.90
2023-04-16T20:24:15.459Z,99.90
2023-04-16T20:26:42.965Z,99.90
2023-04-16T20:29:10.665Z,99.90
2023-04-16T20:31:38.229Z,99.90
2023-04-16T20:34:05.640Z,99.90
2023-04-16T20:36:33.147Z,99.90
2023-04-16T20:39:02.281Z,99.90
2023-04-16T20:41:30.241Z,99.90
2023-04-16T20:43:57.676Z,99.90
2023-04-16T20:46:25.165Z,99.90
2023-04-16T20:48:52.613Z,99.90
2023-04-16T20:51:20.026Z,99.90
2023-04-16T20:53:47.443Z,99.90
2023-04-16T20:56:15.052Z,99.90
2023-04-16T20:58:43.383Z,99.90
2023-04-16T21:01:11.043Z,99.90
2023-04-16T21:03:38.801Z,99.90
2023-04-16T21:06:06.336Z,99.90
2023-04-16T21:08:33.835Z,99.90
2023-04-16T21:11:01.636Z,99.90
2023-04-16T21:13:29.098Z,99.90
2023-04-16T21:15:56.520Z,99.90
2023-04-16T21:18:23.995Z,99.90
2023-04-16T21:20:51.411Z,99.90
2023-04-16T21:23:18.766Z,99.90
2023-04-16T21:25:46.158Z,99.90
2023-04-16T21:28:13.590Z,99.90
2023-04-16T21:30:41.384Z,99.90
2023-04-16T21:33:08.799Z,99.90
2023-04-16T21:35:36.181Z,99.90
2023-04-16T21:38:03.615Z,99.90
2023-04-16T21:40:31.377Z,99.90
2023-04-16T21:42:59.770Z,99.90
2023-04-16T21:45:28.452Z,99.90
2023-04-16T21:47:57.923Z,99.90
2023-04-16T21:50:25.445Z,99.90
2023-04-16T21:52:54.803Z,99.90
2023-04-16T21:55:22.327Z,99.90
2023-04-16T21:57:49.714Z,99.90
2023-04-16T22:00:18.314Z,99.90
2023-04-16T22:02:45.972Z,99.90
2023-04-16T22:05:13.587Z,99.90
2023-04-16T22:07:41.301Z,99.90
2023-04-16T22:10:09.563Z,99.90
2023-04-16T22:12:39.988Z,99.90
2023-04-16T22:15:09.037Z,99.90
2023-04-16T22:17:40.388Z,99.90
2023-04-16T22:20:14.622Z,99.90
2023-04-16T22:22:42.740Z,99.90
2023-04-16T22:25:10.946Z,99.90
2023-04-16T22:27:38.358Z,99.90
2023-04-16T22:30:08.321Z,99.90
2023-04-16T22:32:35.796Z,99.90
2023-04-16T22:35:03.484Z,99.90
2023-04-16T22:37:30.936Z,99.90
2023-04-16T22:39:58.347Z,99.90
2023-04-16T22:42:25.757Z,99.90
2023-04-16T22:44:53.124Z,99.90
2023-04-16T22:47:21.516Z,99.90
2023-04-16T22:49:49.066Z,99.90
2023-04-16T22:52:16.514Z,99.90
2023-04-16T22:54:43.902Z,99.90
2023-04-16T22:57:11.274Z,99.90
2023-04-16T22:59:38.670Z,99.90
2023-04-16T23:02:06.074Z,99.90
2023-04-16T23:04:33.562Z,99.90
2023-04-16T23:07:01.012Z,99.90
2023-04-16T23:09:28.408Z,99.90
2023-04-16T23:11:56.254Z,99.90
2023-04-16T23:14:24.018Z,99.90
2023-04-16T23:16:51.432Z,99.90
2023-04-16T23:19:18.822Z,99.90
2023-04-16T23:21:46.267Z,99.90
2023-04-16T23:24:13.691Z,99.90
2023-04-16T23:26:41.114Z,99.90
2023-04-16T23:29:08.642Z,99.90
2023-04-16T23:31:36.282Z,99.90
2023-04-16T23:34:03.906Z,99.90
2023-04-16T23:36:31.513Z,99.90
2023-04-16T23:38:59.688Z,99.90
2023-04-16T23:41:27.104Z,99.90
2023-04-16T23:43:54.515Z,99.90
2023-04-16T23:46:21.925Z,99.90
2023-04-16T23:48:49.394Z,99.90
2023-04-16T23:51:16.758Z,99.90
2023-04-16T23:53:44.162Z,99.90
2023-04-16T23:56:11.868Z,99.90
2023-04-16T23:58:39.225Z,99.90
